sensor_id;sensor_type;location;lat;lon;timestamp;P1;durP1;ratioP1;P2;durP2;ratioP2
69188;SDS011;56302;52.322;5.926;2024-01-30T00:01:22;22.75;;;11.85;;
69188;SDS011;56302;52.322;5.926;2024-01-30T00:03:48;19.13;;;11.07;;
69188;SDS011;56302;52.322;5.926;2024-01-30T00:06:13;20.83;;;10.50;;
69188;SDS011;56302;52.322;5.926;2024-01-30T00:08:39;17.77;;;10.85;;
69188;SDS011;56302;52.322;5.926;2024-01-30T00:11:04;20.53;;;11.47;;
69188;SDS011;56302;52.322;5.926;2024-01-30T00:13:30;22.33;;;11.80;;
69188;SDS011;56302;52.322;5.926;2024-01-30T00:15:55;19.38;;;10.52;;
69188;SDS011;56302;52.322;5.926;2024-01-30T00:18:21;20.60;;;10.17;;
69188;SDS011;56302;52.322;5.926;2024-01-30T00:20:47;21.03;;;12.30;;
69188;SDS011;56302;52.322;5.926;2024-01-30T00:23:12;18.83;;;10.32;;
69188;SDS011;56302;52.322;5.926;2024-01-30T00:25:38;19.08;;;10.68;;
69188;SDS011;56302;52.322;5.926;2024-01-30T00:28:04;20.35;;;11.40;;
69188;SDS011;56302;52.322;5.926;2024-01-30T00:30:29;19.08;;;10.20;;
69188;SDS011;56302;52.322;5.926;2024-01-30T00:32:55;18.30;;;11.37;;
69188;SDS011;56302;52.322;5.926;2024-01-30T00:35:20;22.63;;;11.65;;
69188;SDS011;56302;52.322;5.926;2024-01-30T00:37:47;22.03;;;11.03;;
69188;SDS011;56302;52.322;5.926;2024-01-30T00:40:13;20.08;;;11.32;;
69188;SDS011;56302;52.322;5.926;2024-01-30T00:42:41;20.20;;;10.85;;
69188;SDS011;56302;52.322;5.926;2024-01-30T00:45:11;20.77;;;11.48;;
69188;SDS011;56302;52.322;5.926;2024-01-30T00:47:41;23.77;;;11.80;;
69188;SDS011;56302;52.322;5.926;2024-01-30T00:50:06;18.20;;;11.10;;
69188;SDS011;56302;52.322;5.926;2024-01-30T00:52:32;19.73;;;11.27;;
69188;SDS011;56302;52.322;5.926;2024-01-30T00:54:58;19.02;;;11.07;;
69188;SDS011;56302;52.322;5.926;2024-01-30T00:57:24;16.80;;;9.50;;
69188;SDS011;56302;52.322;5.926;2024-01-30T00:59:50;16.65;;;9.05;;
69188;SDS011;56302;52.322;5.926;2024-01-30T01:02:15;17.37;;;9.67;;
69188;SDS011;56302;52.322;5.926;2024-01-30T01:04:42;16.95;;;9.50;;
69188;SDS011;56302;52.322;5.926;2024-01-30T01:07:09;19.52;;;9.95;;
69188;SDS011;56302;52.322;5.926;2024-01-30T01:09:35;17.60;;;9.37;;
69188;SDS011;56302;52.322;5.926;2024-01-30T01:12:00;38.47;;;11.07;;
69188;SDS011;56302;52.322;5.926;2024-01-30T01:14:26;18.07;;;9.50;;
69188;SDS011;56302;52.322;5.926;2024-01-30T01:16:52;18.98;;;9.40;;
69188;SDS011;56302;52.322;5.926;2024-01-30T01:19:17;15.43;;;9.60;;
69188;SDS011;56302;52.322;5.926;2024-01-30T01:21:43;16.03;;;9.67;;
69188;SDS011;56302;52.322;5.926;2024-01-30T01:24:08;15.77;;;8.82;;
69188;SDS011;56302;52.322;5.926;2024-01-30T01:26:34;24.40;;;9.30;;
69188;SDS011;56302;52.322;5.926;2024-01-30T01:28:59;16.90;;;8.83;;
69188;SDS011;56302;52.322;5.926;2024-01-30T01:31:25;16.58;;;9.30;;
69188;SDS011;56302;52.322;5.926;2024-01-30T01:33:54;15.90;;;8.98;;
69188;SDS011;56302;52.322;5.926;2024-01-30T01:36:20;14.30;;;8.60;;
69188;SDS011;56302;52.322;5.926;2024-01-30T01:38:45;15.13;;;7.80;;
69188;SDS011;56302;52.322;5.926;2024-01-30T01:41:11;16.92;;;8.00;;
69188;SDS011;56302;52.322;5.926;2024-01-30T01:43:37;13.20;;;7.87;;
69188;SDS011;56302;52.322;5.926;2024-01-30T01:46:04;12.25;;;7.55;;
69188;SDS011;56302;52.322;5.926;2024-01-30T01:48:30;17.23;;;7.05;;
69188;SDS011;56302;52.322;5.926;2024-01-30T01:50:56;12.03;;;7.87;;
69188;SDS011;56302;52.322;5.926;2024-01-30T01:53:22;12.43;;;7.50;;
69188;SDS011;56302;52.322;5.926;2024-01-30T01:55:48;14.45;;;7.75;;
69188;SDS011;56302;52.322;5.926;2024-01-30T01:58:14;19.30;;;8.67;;
69188;SDS011;56302;52.322;5.926;2024-01-30T02:00:39;18.73;;;8.38;;
69188;SDS011;56302;52.322;5.926;2024-01-30T02:03:06;79.25;;;9.25;;
69188;SDS011;56302;52.322;5.926;2024-01-30T02:05:35;18.67;;;7.50;;
69188;SDS011;56302;52.322;5.926;2024-01-30T02:08:01;13.07;;;6.88;;
69188;SDS011;56302;52.322;5.926;2024-01-30T02:10:28;12.20;;;6.80;;
69188;SDS011;56302;52.322;5.926;2024-01-30T02:12:54;11.30;;;7.40;;
69188;SDS011;56302;52.322;5.926;2024-01-30T02:15:19;13.75;;;7.68;;
69188;SDS011;56302;52.322;5.926;2024-01-30T02:17:45;11.37;;;7.13;;
69188;SDS011;56302;52.322;5.926;2024-01-30T02:20:10;10.47;;;6.30;;
69188;SDS011;56302;52.322;5.926;2024-01-30T02:22:36;12.90;;;7.65;;
69188;SDS011;56302;52.322;5.926;2024-01-30T02:25:03;11.85;;;7.18;;
69188;SDS011;56302;52.322;5.926;2024-01-30T02:27:29;14.10;;;8.20;;
69188;SDS011;56302;52.322;5.926;2024-01-30T02:29:54;15.02;;;7.13;;
69188;SDS011;56302;52.322;5.926;2024-01-30T02:32:20;13.20;;;7.30;;
69188;SDS011;56302;52.322;5.926;2024-01-30T02:34:46;17.27;;;8.03;;
69188;SDS011;56302;52.322;5.926;2024-01-30T02:37:11;470.23;;;19.27;;
69188;SDS011;56302;52.322;5.926;2024-01-30T02:39:37;132.73;;;9.40;;
69188;SDS011;56302;52.322;5.926;2024-01-30T02:42:02;39.00;;;8.27;;
69188;SDS011;56302;52.322;5.926;2024-01-30T02:44:28;233.50;;;12.90;;
69188;SDS011;56302;52.322;5.926;2024-01-30T02:46:53;77.07;;;8.83;;
69188;SDS011;56302;52.322;5.926;2024-01-30T02:49:20;142.45;;;10.40;;
69188;SDS011;56302;52.322;5.926;2024-01-30T02:51:46;67.40;;;7.70;;
69188;SDS011;56302;52.322;5.926;2024-01-30T02:54:11;192.70;;;11.67;;
69188;SDS011;56302;52.322;5.926;2024-01-30T02:56:37;212.23;;;13.37;;
69188;SDS011;56302;52.322;5.926;2024-01-30T02:59:02;140.23;;;9.38;;
69188;SDS011;56302;52.322;5.926;2024-01-30T03:01:28;18.87;;;7.77;;
69188;SDS011;56302;52.322;5.926;2024-01-30T03:03:54;12.43;;;7.47;;
69188;SDS011;56302;52.322;5.926;2024-01-30T03:06:19;12.40;;;7.10;;
69188;SDS011;56302;52.322;5.926;2024-01-30T03:08:45;14.33;;;8.10;;
69188;SDS011;56302;52.322;5.926;2024-01-30T03:11:10;14.23;;;8.50;;
69188;SDS011;56302;52.322;5.926;2024-01-30T03:13:36;12.53;;;8.10;;
69188;SDS011;56302;52.322;5.926;2024-01-30T03:16:02;17.10;;;9.07;;
69188;SDS011;56302;52.322;5.926;2024-01-30T03:18:27;19.80;;;9.10;;
69188;SDS011;56302;52.322;5.926;2024-01-30T03:20:53;17.97;;;8.40;;
69188;SDS011;56302;52.322;5.926;2024-01-30T03:23:18;21.43;;;9.70;;
69188;SDS011;56302;52.322;5.926;2024-01-30T03:25:44;13.85;;;8.15;;
69188;SDS011;56302;52.322;5.926;2024-01-30T03:28:10;15.40;;;7.73;;
69188;SDS011;56302;52.322;5.926;2024-01-30T03:30:36;14.75;;;8.15;;
69188;SDS011;56302;52.322;5.926;2024-01-30T03:33:01;25.10;;;9.30;;
69188;SDS011;56302;52.322;5.926;2024-01-30T03:35:27;140.47;;;11.17;;
69188;SDS011;56302;52.322;5.926;2024-01-30T03:37:53;180.80;;;14.13;;
69188;SDS011;56302;52.322;5.926;2024-01-30T03:40:18;20.52;;;7.25;;
69188;SDS011;56302;52.322;5.926;2024-01-30T03:42:44;16.03;;;7.90;;
69188;SDS011;56302;52.322;5.926;2024-01-30T03:45:10;16.30;;;9.23;;
69188;SDS011;56302;52.322;5.926;2024-01-30T03:47:36;15.47;;;8.67;;
69188;SDS011;56302;52.322;5.926;2024-01-30T03:50:01;17.98;;;9.05;;
69188;SDS011;56302;52.322;5.926;2024-01-30T03:52:27;16.97;;;9.23;;
69188;SDS011;56302;52.322;5.926;2024-01-30T03:54:52;18.97;;;9.43;;
69188;SDS011;56302;52.322;5.926;2024-01-30T03:57:18;17.52;;;9.18;;
69188;SDS011;56302;52.322;5.926;2024-01-30T03:59:43;20.90;;;10.83;;
69188;SDS011;56302;52.322;5.926;2024-01-30T04:02:12;21.17;;;9.27;;
69188;SDS011;56302;52.322;5.926;2024-01-30T04:04:37;21.25;;;10.88;;
69188;SDS011;56302;52.322;5.926;2024-01-30T04:07:03;19.60;;;10.23;;
69188;SDS011;56302;52.322;5.926;2024-01-30T04:09:29;22.73;;;10.60;;
69188;SDS011;56302;52.322;5.926;2024-01-30T04:11:54;15.17;;;9.17;;
69188;SDS011;56302;52.322;5.926;2024-01-30T04:14:20;19.48;;;10.32;;
69188;SDS011;56302;52.322;5.926;2024-01-30T04:16:45;28.20;;;11.70;;
69188;SDS011;56302;52.322;5.926;2024-01-30T04:19:11;22.77;;;10.85;;
69188;SDS011;56302;52.322;5.926;2024-01-30T04:21:37;17.97;;;9.30;;
69188;SDS011;56302;52.322;5.926;2024-01-30T04:24:02;21.00;;;9.10;;
69188;SDS011;56302;52.322;5.926;2024-01-30T04:26:28;17.88;;;9.60;;
69188;SDS011;56302;52.322;5.926;2024-01-30T04:28:54;18.47;;;10.47;;
69188;SDS011;56302;52.322;5.926;2024-01-30T04:31:19;16.95;;;8.40;;
69188;SDS011;56302;52.322;5.926;2024-01-30T04:33:45;19.63;;;9.43;;
69188;SDS011;56302;52.322;5.926;2024-01-30T04:36:10;17.70;;;8.63;;
69188;SDS011;56302;52.322;5.926;2024-01-30T04:38:37;17.20;;;9.45;;
69188;SDS011;56302;52.322;5.926;2024-01-30T04:41:03;16.70;;;8.30;;
69188;SDS011;56302;52.322;5.926;2024-01-30T04:43:30;17.33;;;9.70;;
69188;SDS011;56302;52.322;5.926;2024-01-30T04:45:55;20.42;;;10.55;;
69188;SDS011;56302;52.322;5.926;2024-01-30T04:48:21;18.77;;;9.23;;
69188;SDS011;56302;52.322;5.926;2024-01-30T04:50:47;21.87;;;10.33;;
69188;SDS011;56302;52.322;5.926;2024-01-30T04:53:12;17.48;;;9.10;;
69188;SDS011;56302;52.322;5.926;2024-01-30T04:55:38;17.17;;;9.60;;
69188;SDS011;56302;52.322;5.926;2024-01-30T04:58:03;15.03;;;8.63;;
69188;SDS011;56302;52.322;5.926;2024-01-30T05:00:29;17.35;;;9.32;;
69188;SDS011;56302;52.322;5.926;2024-01-30T05:02:55;14.37;;;8.37;;
69188;SDS011;56302;52.322;5.926;2024-01-30T05:05:20;17.45;;;8.82;;
69188;SDS011;56302;52.322;5.926;2024-01-30T05:07:46;15.53;;;9.30;;
69188;SDS011;56302;52.322;5.926;2024-01-30T05:10:12;15.50;;;7.70;;
69188;SDS011;56302;52.322;5.926;2024-01-30T05:12:38;18.15;;;8.82;;
69188;SDS011;56302;52.322;5.926;2024-01-30T05:15:04;15.63;;;8.37;;
69188;SDS011;56302;52.322;5.926;2024-01-30T05:17:30;18.08;;;8.48;;
69188;SDS011;56302;52.322;5.926;2024-01-30T05:19:56;15.93;;;7.60;;
69188;SDS011;56302;52.322;5.926;2024-01-30T05:22:21;17.05;;;8.10;;
69188;SDS011;56302;52.322;5.926;2024-01-30T05:24:47;15.00;;;8.10;;
69188;SDS011;56302;52.322;5.926;2024-01-30T05:27:12;18.57;;;8.63;;
69188;SDS011;56302;52.322;5.926;2024-01-30T05:29:41;14.52;;;7.47;;
69188;SDS011;56302;52.322;5.926;2024-01-30T05:32:06;18.23;;;8.60;;
69188;SDS011;56302;52.322;5.926;2024-01-30T05:34:32;14.80;;;8.10;;
69188;SDS011;56302;52.322;5.926;2024-01-30T05:36:58;16.83;;;7.67;;
69188;SDS011;56302;52.322;5.926;2024-01-30T05:39:24;16.45;;;7.97;;
69188;SDS011;56302;52.322;5.926;2024-01-30T05:41:50;17.42;;;8.20;;
69188;SDS011;56302;52.322;5.926;2024-01-30T05:44:15;18.47;;;8.90;;
69188;SDS011;56302;52.322;5.926;2024-01-30T05:46:41;17.73;;;7.47;;
69188;SDS011;56302;52.322;5.926;2024-01-30T05:49:07;17.85;;;8.55;;
69188;SDS011;56302;52.322;5.926;2024-01-30T05:51:32;13.73;;;7.43;;
69188;SDS011;56302;52.322;5.926;2024-01-30T05:53:58;20.88;;;8.27;;
69188;SDS011;56302;52.322;5.926;2024-01-30T05:56:23;18.03;;;8.40;;
69188;SDS011;56302;52.322;5.926;2024-01-30T05:58:49;14.48;;;8.15;;
69188;SDS011;56302;52.322;5.926;2024-01-30T06:01:15;14.60;;;7.43;;
69188;SDS011;56302;52.322;5.926;2024-01-30T06:03:41;14.20;;;7.18;;
69188;SDS011;56302;52.322;5.926;2024-01-30T06:06:08;14.00;;;7.78;;
69188;SDS011;56302;52.322;5.926;2024-01-30T06:08:34;15.77;;;7.13;;
69188;SDS011;56302;52.322;5.926;2024-01-30T06:10:59;13.93;;;7.68;;
69188;SDS011;56302;52.322;5.926;2024-01-30T06:13:26;14.88;;;8.00;;
69188;SDS011;56302;52.322;5.926;2024-01-30T06:15:51;13.47;;;7.27;;
69188;SDS011;56302;52.322;5.926;2024-01-30T06:18:17;12.68;;;6.88;;
69188;SDS011;56302;52.322;5.926;2024-01-30T06:20:43;14.23;;;7.63;;
69188;SDS011;56302;52.322;5.926;2024-01-30T06:23:09;12.45;;;7.60;;
69188;SDS011;56302;52.322;5.926;2024-01-30T06:25:35;14.93;;;7.20;;
69188;SDS011;56302;52.322;5.926;2024-01-30T06:28:00;15.57;;;7.60;;
69188;SDS011;56302;52.322;5.926;2024-01-30T06:30:26;15.07;;;7.60;;
69188;SDS011;56302;52.322;5.926;2024-01-30T06:32:51;12.95;;;7.70;;
69188;SDS011;56302;52.322;5.926;2024-01-30T06:35:17;13.87;;;7.80;;
69188;SDS011;56302;52.322;5.926;2024-01-30T06:37:43;14.93;;;7.93;;
69188;SDS011;56302;52.322;5.926;2024-01-30T06:40:08;17.02;;;7.68;;
69188;SDS011;56302;52.322;5.926;2024-01-30T06:42:34;15.35;;;8.02;;
69188;SDS011;56302;52.322;5.926;2024-01-30T06:45:00;15.50;;;7.80;;
69188;SDS011;56302;52.322;5.926;2024-01-30T06:47:25;11.50;;;7.07;;
69188;SDS011;56302;52.322;5.926;2024-01-30T06:49:51;14.02;;;7.45;;
69188;SDS011;56302;52.322;5.926;2024-01-30T06:52:17;16.53;;;6.83;;
69188;SDS011;56302;52.322;5.926;2024-01-30T06:54:42;12.93;;;7.40;;
69188;SDS011;56302;52.322;5.926;2024-01-30T06:57:08;14.02;;;6.80;;
69188;SDS011;56302;52.322;5.926;2024-01-30T06:59:36;14.23;;;6.65;;
69188;SDS011;56302;52.322;5.926;2024-01-30T07:02:02;13.23;;;7.10;;
69188;SDS011;56302;52.322;5.926;2024-01-30T07:04:28;16.20;;;6.40;;
69188;SDS011;56302;52.322;5.926;2024-01-30T07:06:53;14.00;;;7.07;;
69188;SDS011;56302;52.322;5.926;2024-01-30T07:09:19;13.73;;;6.38;;
69188;SDS011;56302;52.322;5.926;2024-01-30T07:11:45;13.07;;;6.67;;
69188;SDS011;56302;52.322;5.926;2024-01-30T07:14:10;13.87;;;6.23;;
69188;SDS011;56302;52.322;5.926;2024-01-30T07:16:36;13.10;;;7.03;;
69188;SDS011;56302;52.322;5.926;2024-01-30T07:19:01;14.43;;;6.20;;
69188;SDS011;56302;52.322;5.926;2024-01-30T07:21:27;15.17;;;6.50;;
69188;SDS011;56302;52.322;5.926;2024-01-30T07:23:56;12.38;;;6.20;;
69188;SDS011;56302;52.322;5.926;2024-01-30T07:26:22;17.10;;;6.95;;
69188;SDS011;56302;52.322;5.926;2024-01-30T07:28:48;12.20;;;6.30;;
69188;SDS011;56302;52.322;5.926;2024-01-30T07:31:15;12.38;;;6.40;;
69188;SDS011;56302;52.322;5.926;2024-01-30T07:33:40;12.82;;;6.25;;
69188;SDS011;56302;52.322;5.926;2024-01-30T07:36:06;11.57;;;5.77;;
69188;SDS011;56302;52.322;5.926;2024-01-30T07:38:32;12.47;;;6.40;;
69188;SDS011;56302;52.322;5.926;2024-01-30T07:40:57;13.38;;;6.20;;
69188;SDS011;56302;52.322;5.926;2024-01-30T07:43:23;12.20;;;6.80;;
69188;SDS011;56302;52.322;5.926;2024-01-30T07:45:49;11.50;;;6.00;;
69188;SDS011;56302;52.322;5.926;2024-01-30T07:48:15;12.47;;;5.67;;
69188;SDS011;56302;52.322;5.926;2024-01-30T07:50:41;12.60;;;6.07;;
69188;SDS011;56302;52.322;5.926;2024-01-30T07:53:06;11.43;;;6.23;;
69188;SDS011;56302;52.322;5.926;2024-01-30T07:55:32;12.75;;;6.38;;
69188;SDS011;56302;52.322;5.926;2024-01-30T07:57:58;11.47;;;5.80;;
69188;SDS011;56302;52.322;5.926;2024-01-30T08:00:24;11.07;;;6.45;;
69188;SDS011;56302;52.322;5.926;2024-01-30T08:02:52;13.63;;;6.23;;
69188;SDS011;56302;52.322;5.926;2024-01-30T08:05:19;13.75;;;6.22;;
69188;SDS011;56302;52.322;5.926;2024-01-30T08:07:47;10.90;;;5.90;;
69188;SDS011;56302;52.322;5.926;2024-01-30T08:10:13;10.88;;;6.10;;
69188;SDS011;56302;52.322;5.926;2024-01-30T08:12:40;11.95;;;5.95;;
69188;SDS011;56302;52.322;5.926;2024-01-30T08:15:05;14.30;;;6.50;;
69188;SDS011;56302;52.322;5.926;2024-01-30T08:17:31;15.35;;;6.65;;
69188;SDS011;56302;52.322;5.926;2024-01-30T08:19:57;12.53;;;6.07;;
69188;SDS011;56302;52.322;5.926;2024-01-30T08:22:22;12.80;;;6.40;;
69188;SDS011;56302;52.322;5.926;2024-01-30T08:24:48;12.20;;;7.03;;
69188;SDS011;56302;52.322;5.926;2024-01-30T08:27:14;11.30;;;6.10;;
69188;SDS011;56302;52.322;5.926;2024-01-30T08:29:39;13.02;;;5.88;;
69188;SDS011;56302;52.322;5.926;2024-01-30T08:32:05;15.80;;;6.60;;
69188;SDS011;56302;52.322;5.926;2024-01-30T08:34:31;11.82;;;6.20;;
69188;SDS011;56302;52.322;5.926;2024-01-30T08:36:57;11.85;;;5.47;;
69188;SDS011;56302;52.322;5.926;2024-01-30T08:39:22;12.27;;;5.67;;
69188;SDS011;56302;52.322;5.926;2024-01-30T08:41:48;13.10;;;5.40;;
69188;SDS011;56302;52.322;5.926;2024-01-30T08:44:14;15.95;;;6.20;;
69188;SDS011;56302;52.322;5.926;2024-01-30T08:46:39;12.50;;;6.53;;
69188;SDS011;56302;52.322;5.926;2024-01-30T08:49:05;11.90;;;5.93;;
69188;SDS011;56302;52.322;5.926;2024-01-30T08:51:30;14.80;;;6.20;;
69188;SDS011;56302;52.322;5.926;2024-01-30T08:53:56;12.77;;;6.40;;
69188;SDS011;56302;52.322;5.926;2024-01-30T08:56:22;13.85;;;6.30;;
69188;SDS011;56302;52.322;5.926;2024-01-30T08:58:47;11.30;;;5.43;;
69188;SDS011;56302;52.322;5.926;2024-01-30T09:01:13;12.77;;;6.37;;
69188;SDS011;56302;52.322;5.926;2024-01-30T09:03:39;14.63;;;5.68;;
69188;SDS011;56302;52.322;5.926;2024-01-30T09:06:11;14.68;;;5.88;;
69188;SDS011;56302;52.322;5.926;2024-01-30T09:08:37;13.25;;;6.18;;
69188;SDS011;56302;52.322;5.926;2024-01-30T09:11:10;12.97;;;6.17;;
69188;SDS011;56302;52.322;5.926;2024-01-30T09:13:39;11.90;;;5.72;;
69188;SDS011;56302;52.322;5.926;2024-01-30T09:16:05;15.10;;;6.63;;
69188;SDS011;56302;52.322;5.926;2024-01-30T09:18:31;15.68;;;7.20;;
69188;SDS011;56302;52.322;5.926;2024-01-30T09:20:57;13.38;;;5.88;;
69188;SDS011;56302;52.322;5.926;2024-01-30T09:23:23;15.30;;;6.05;;
69188;SDS011;56302;52.322;5.926;2024-01-30T09:25:49;11.32;;;6.07;;
69188;SDS011;56302;52.322;5.926;2024-01-30T09:28:15;14.23;;;6.57;;
69188;SDS011;56302;52.322;5.926;2024-01-30T09:30:42;13.90;;;6.45;;
69188;SDS011;56302;52.322;5.926;2024-01-30T09:33:08;12.50;;;5.97;;
69188;SDS011;56302;52.322;5.926;2024-01-30T09:35:33;16.20;;;5.93;;
69188;SDS011;56302;52.322;5.926;2024-01-30T09:37:59;15.33;;;6.20;;
69188;SDS011;56302;52.322;5.926;2024-01-30T09:40:25;10.75;;;5.78;;
69188;SDS011;56302;52.322;5.926;2024-01-30T09:42:50;14.97;;;5.77;;
69188;SDS011;56302;52.322;5.926;2024-01-30T09:45:21;16.35;;;6.20;;
69188;SDS011;56302;52.322;5.926;2024-01-30T09:47:50;13.93;;;6.28;;
69188;SDS011;56302;52.322;5.926;2024-01-30T09:50:16;15.10;;;6.85;;
69188;SDS011;56302;52.322;5.926;2024-01-30T09:52:44;12.68;;;6.03;;
69188;SDS011;56302;52.322;5.926;2024-01-30T09:55:11;13.18;;;6.35;;
69188;SDS011;56302;52.322;5.926;2024-01-30T09:57:37;15.73;;;6.70;;
69188;SDS011;56302;52.322;5.926;2024-01-30T10:00:03;16.97;;;5.83;;
69188;SDS011;56302;52.322;5.926;2024-01-30T10:02:31;13.90;;;5.78;;
69188;SDS011;56302;52.322;5.926;2024-01-30T10:04:57;13.73;;;5.88;;
69188;SDS011;56302;52.322;5.926;2024-01-30T10:07:22;13.57;;;6.10;;
69188;SDS011;56302;52.322;5.926;2024-01-30T10:09:48;14.00;;;6.60;;
69188;SDS011;56302;52.322;5.926;2024-01-30T10:12:14;14.93;;;5.97;;
69188;SDS011;56302;52.322;5.926;2024-01-30T10:14:41;14.43;;;6.47;;
69188;SDS011;56302;52.322;5.926;2024-01-30T10:17:07;11.57;;;6.40;;
69188;SDS011;56302;52.322;5.926;2024-01-30T10:19:35;14.10;;;6.72;;
69188;SDS011;56302;52.322;5.926;2024-01-30T10:22:01;12.10;;;6.20;;
69188;SDS011;56302;52.322;5.926;2024-01-30T10:24:27;13.98;;;6.57;;
69188;SDS011;56302;52.322;5.926;2024-01-30T10:26:54;17.73;;;6.85;;
69188;SDS011;56302;52.322;5.926;2024-01-30T10:29:20;15.70;;;6.70;;
69188;SDS011;56302;52.322;5.926;2024-01-30T10:31:45;11.90;;;6.77;;
69188;SDS011;56302;52.322;5.926;2024-01-30T10:34:12;14.68;;;6.70;;
69188;SDS011;56302;52.322;5.926;2024-01-30T10:36:41;16.50;;;6.70;;
69188;SDS011;56302;52.322;5.926;2024-01-30T10:39:11;11.97;;;6.43;;
69188;SDS011;56302;52.322;5.926;2024-01-30T10:41:45;14.07;;;6.47;;
69188;SDS011;56302;52.322;5.926;2024-01-30T10:44:13;14.10;;;6.45;;
69188;SDS011;56302;52.322;5.926;2024-01-30T10:46:46;13.73;;;7.32;;
69188;SDS011;56302;52.322;5.926;2024-01-30T10:49:24;13.38;;;6.57;;
69188;SDS011;56302;52.322;5.926;2024-01-30T10:51:50;15.67;;;6.50;;
69188;SDS011;56302;52.322;5.926;2024-01-30T10:54:17;13.07;;;6.18;;
69188;SDS011;56302;52.322;5.926;2024-01-30T10:56:45;14.90;;;6.22;;
69188;SDS011;56302;52.322;5.926;2024-01-30T10:59:11;16.35;;;6.40;;
69188;SDS011;56302;52.322;5.926;2024-01-30T11:01:38;15.27;;;5.80;;
69188;SDS011;56302;52.322;5.926;2024-01-30T11:04:04;14.60;;;6.72;;
69188;SDS011;56302;52.322;5.926;2024-01-30T11:06:29;11.75;;;5.70;;
69188;SDS011;56302;52.322;5.926;2024-01-30T11:09:02;10.53;;;5.83;;
69188;SDS011;56302;52.322;5.926;2024-01-30T11:11:29;14.63;;;6.20;;
69188;SDS011;56302;52.322;5.926;2024-01-30T11:13:54;13.67;;;6.10;;
69188;SDS011;56302;52.322;5.926;2024-01-30T11:16:20;12.60;;;6.20;;
69188;SDS011;56302;52.322;5.926;2024-01-30T11:18:49;12.43;;;5.60;;
69188;SDS011;56302;52.322;5.926;2024-01-30T11:21:16;13.35;;;6.00;;
69188;SDS011;56302;52.322;5.926;2024-01-30T11:23:42;12.77;;;6.13;;
69188;SDS011;56302;52.322;5.926;2024-01-30T11:26:10;12.75;;;5.82;;
69188;SDS011;56302;52.322;5.926;2024-01-30T11:28:36;9.88;;;5.22;;
69188;SDS011;56302;52.322;5.926;2024-01-30T11:31:06;15.73;;;5.83;;
69188;SDS011;56302;52.322;5.926;2024-01-30T11:33:32;12.70;;;5.50;;
69188;SDS011;56302;52.322;5.926;2024-01-30T11:35:59;10.45;;;5.53;;
69188;SDS011;56302;52.322;5.926;2024-01-30T11:38:26;12.18;;;5.22;;
69188;SDS011;56302;52.322;5.926;2024-01-30T11:40:52;12.70;;;5.47;;
69188;SDS011;56302;52.322;5.926;2024-01-30T11:43:19;11.50;;;4.57;;
69188;SDS011;56302;52.322;5.926;2024-01-30T11:45:45;12.82;;;4.60;;
69188;SDS011;56302;52.322;5.926;2024-01-30T11:48:11;11.80;;;5.22;;
69188;SDS011;56302;52.322;5.926;2024-01-30T11:50:37;12.73;;;5.65;;
69188;SDS011;56302;52.322;5.926;2024-01-30T11:53:05;10.45;;;4.97;;
69188;SDS011;56302;52.322;5.926;2024-01-30T11:55:30;13.55;;;4.82;;
69188;SDS011;56302;52.322;5.926;2024-01-30T11:57:56;12.27;;;4.47;;
69188;SDS011;56302;52.322;5.926;2024-01-30T12:00:23;10.80;;;3.95;;
69188;SDS011;56302;52.322;5.926;2024-01-30T12:02:49;9.50;;;4.65;;
69188;SDS011;56302;52.322;5.926;2024-01-30T12:05:18;10.10;;;4.40;;
69188;SDS011;56302;52.322;5.926;2024-01-30T12:07:44;9.20;;;4.28;;
69188;SDS011;56302;52.322;5.926;2024-01-30T12:10:12;8.27;;;3.90;;
69188;SDS011;56302;52.322;5.926;2024-01-30T12:12:38;9.05;;;4.07;;
69188;SDS011;56302;52.322;5.926;2024-01-30T12:15:06;12.23;;;4.20;;
69188;SDS011;56302;52.322;5.926;2024-01-30T12:17:33;8.45;;;3.40;;
69188;SDS011;56302;52.322;5.926;2024-01-30T12:22:42;7.37;;;3.53;;
69188;SDS011;56302;52.322;5.926;2024-01-30T12:25:12;7.10;;;3.10;;
69188;SDS011;56302;52.322;5.926;2024-01-30T12:27:42;6.65;;;2.90;;
69188;SDS011;56302;52.322;5.926;2024-01-30T12:30:13;7.13;;;2.40;;
69188;SDS011;56302;52.322;5.926;2024-01-30T12:32:39;7.25;;;2.60;;
69188;SDS011;56302;52.322;5.926;2024-01-30T12:35:10;5.00;;;2.00;;
69188;SDS011;56302;52.322;5.926;2024-01-30T12:37:43;5.97;;;2.13;;
69188;SDS011;56302;52.322;5.926;2024-01-30T12:40:10;5.07;;;1.85;;
69188;SDS011;56302;52.322;5.926;2024-01-30T12:42:39;7.60;;;1.98;;
69188;SDS011;56302;52.322;5.926;2024-01-30T12:45:06;7.05;;;2.10;;
69188;SDS011;56302;52.322;5.926;2024-01-30T12:47:33;5.60;;;1.70;;
69188;SDS011;56302;52.322;5.926;2024-01-30T12:49:58;7.57;;;1.50;;
69188;SDS011;56302;52.322;5.926;2024-01-30T12:52:24;5.17;;;1.77;;
69188;SDS011;56302;52.322;5.926;2024-01-30T12:54:50;5.90;;;1.40;;
69188;SDS011;56302;52.322;5.926;2024-01-30T12:57:16;3.97;;;1.80;;
69188;SDS011;56302;52.322;5.926;2024-01-30T12:59:43;3.65;;;1.40;;
69188;SDS011;56302;52.322;5.926;2024-01-30T13:02:09;5.17;;;1.10;;
69188;SDS011;56302;52.322;5.926;2024-01-30T13:04:35;3.58;;;1.17;;
69188;SDS011;56302;52.322;5.926;2024-01-30T13:07:01;7.13;;;2.03;;
69188;SDS011;56302;52.322;5.926;2024-01-30T13:09:29;4.57;;;1.60;;
69188;SDS011;56302;52.322;5.926;2024-01-30T13:11:55;4.43;;;1.50;;
69188;SDS011;56302;52.322;5.926;2024-01-30T13:14:21;5.80;;;2.40;;
69188;SDS011;56302;52.322;5.926;2024-01-30T13:16:46;5.10;;;2.20;;
69188;SDS011;56302;52.322;5.926;2024-01-30T13:19:12;5.18;;;2.13;;
69188;SDS011;56302;52.322;5.926;2024-01-30T13:21:38;4.87;;;2.10;;
69188;SDS011;56302;52.322;5.926;2024-01-30T13:24:03;6.83;;;2.30;;
69188;SDS011;56302;52.322;5.926;2024-01-30T13:26:31;4.18;;;1.52;;
69188;SDS011;56302;52.322;5.926;2024-01-30T13:28:57;3.47;;;1.13;;
69188;SDS011;56302;52.322;5.926;2024-01-30T13:31:23;7.95;;;1.63;;
69188;SDS011;56302;52.322;5.926;2024-01-30T13:33:49;5.25;;;1.83;;
69188;SDS011;56302;52.322;5.926;2024-01-30T13:36:14;3.63;;;2.10;;
69188;SDS011;56302;52.322;5.926;2024-01-30T13:38:40;6.72;;;2.10;;
69188;SDS011;56302;52.322;5.926;2024-01-30T13:41:06;5.32;;;1.77;;
69188;SDS011;56302;52.322;5.926;2024-01-30T13:43:32;4.30;;;1.80;;
69188;SDS011;56302;52.322;5.926;2024-01-30T13:45:57;5.03;;;1.63;;
69188;SDS011;56302;52.322;5.926;2024-01-30T13:48:23;4.50;;;1.63;;
69188;SDS011;56302;52.322;5.926;2024-01-30T13:50:49;4.32;;;1.52;;
69188;SDS011;56302;52.322;5.926;2024-01-30T13:53:15;6.17;;;1.70;;
69188;SDS011;56302;52.322;5.926;2024-01-30T13:55:40;6.00;;;1.90;;
69188;SDS011;56302;52.322;5.926;2024-01-30T13:58:06;5.05;;;1.70;;
69188;SDS011;56302;52.322;5.926;2024-01-30T14:00:32;7.30;;;2.10;;
69188;SDS011;56302;52.322;5.926;2024-01-30T14:02:58;4.23;;;1.53;;
69188;SDS011;56302;52.322;5.926;2024-01-30T14:05:25;5.05;;;1.65;;
69188;SDS011;56302;52.322;5.926;2024-01-30T14:07:53;3.75;;;1.42;;
69188;SDS011;56302;52.322;5.926;2024-01-30T14:10:18;3.47;;;1.38;;
69188;SDS011;56302;52.322;5.926;2024-01-30T14:12:44;3.13;;;1.45;;
69188;SDS011;56302;52.322;5.926;2024-01-30T14:15:10;5.05;;;1.45;;
69188;SDS011;56302;52.322;5.926;2024-01-30T14:17:37;6.05;;;1.52;;
69188;SDS011;56302;52.322;5.926;2024-01-30T14:20:03;2.90;;;1.47;;
69188;SDS011;56302;52.322;5.926;2024-01-30T14:22:29;4.07;;;1.42;;
69188;SDS011;56302;52.322;5.926;2024-01-30T14:24:55;2.70;;;1.27;;
69188;SDS011;56302;52.322;5.926;2024-01-30T14:27:21;3.33;;;1.03;;
69188;SDS011;56302;52.322;5.926;2024-01-30T14:29:47;4.72;;;1.33;;
69188;SDS011;56302;52.322;5.926;2024-01-30T14:32:12;4.93;;;1.40;;